createdAt,value
2019-01-30T00:01:55.803Z,98839.23
2019-01-30T00:04:21.915Z,98839.67
2019-01-30T00:06:48.171Z,98837.49
2019-01-30T00:09:14.305Z,98831.45
2019-01-30T00:11:40.438Z,98825.85
2019-01-30T00:14:06.659Z,98828.00
2019-01-30T00:16:32.886Z,98821.96
2019-01-30T00:18:59.135Z,98827.15
2019-01-30T00:21:25.378Z,98832.77
2019-01-30T00:23:51.639Z,98828.86
2019-01-30T00:26:17.780Z,98823.27
2019-01-30T00:28:43.884Z,98815.92
2019-01-30T00:31:10.122Z,98815.06
2019-01-30T00:33:36.266Z,98811.17
2019-01-30T00:36:02.416Z,98811.62
2019-01-30T00:38:28.556Z,98809.89
2019-01-30T00:40:54.831Z,98806.45
2019-01-30T00:43:21.057Z,98806.86
2019-01-30T00:45:47.300Z,98806.44
2019-01-30T00:48:13.423Z,98795.20
2019-01-30T00:50:39.675Z,98800.39
2019-01-30T00:53:05.819Z,98795.66
2019-01-30T00:55:31.921Z,98799.55
2019-01-30T00:57:58.069Z,98800.84
2019-01-30T01:00:26.220Z,98789.19
2019-01-30T01:02:52.489Z,98795.22
2019-01-30T01:05:18.584Z,98795.66
2019-01-30T01:07:45.026Z,98790.89
2019-01-30T01:10:16.452Z,98790.47
2019-01-30T01:12:42.622Z,98793.06
2019-01-30T01:15:11.158Z,98792.19
2019-01-30T01:17:37.335Z,98795.22
2019-01-30T01:20:07.181Z,98790.04
2019-01-30T01:22:33.315Z,98797.37
2019-01-30T01:24:59.552Z,98799.95
2019-01-30T01:27:25.681Z,98796.95
2019-01-30T01:29:51.840Z,98796.09
2019-01-30T01:32:17.949Z,98798.24
2019-01-30T01:34:44.094Z,98794.78
2019-01-30T01:37:10.234Z,98786.16
2019-01-30T01:39:36.404Z,98790.04
2019-01-30T01:42:02.647Z,98791.77
2019-01-30T01:44:28.796Z,98791.33
2019-01-30T01:46:54.989Z,98782.72
2019-01-30T01:49:21.101Z,98780.56
2019-01-30T01:51:47.253Z,98784.45
2019-01-30T01:54:13.383Z,98780.13
2019-01-30T01:56:42.491Z,98783.56
2019-01-30T01:59:08.679Z,98784.02
2019-01-30T02:01:34.869Z,98790.48
2019-01-30T02:04:01.085Z,98786.59
2019-01-30T02:06:27.228Z,98786.16
2019-01-30T02:08:53.361Z,98785.74
2019-01-30T02:11:19.482Z,98777.53
2019-01-30T02:13:45.572Z,98776.65
2019-01-30T02:16:11.775Z,98782.72
2019-01-30T02:18:38.012Z,98780.56
2019-01-30T02:21:04.160Z,98784.00
2019-01-30T02:23:30.358Z,98786.14
2019-01-30T02:25:56.478Z,98776.69
2019-01-30T02:28:22.591Z,98774.50
2019-01-30T02:30:48.755Z,98778.84
2019-01-30T02:33:14.971Z,98778.39
2019-01-30T02:35:41.185Z,98775.80
2019-01-30T02:38:07.372Z,98773.21
2019-01-30T02:40:33.529Z,98774.50
2019-01-30T02:42:59.691Z,98772.36
2019-01-30T02:45:26.224Z,98770.62
2019-01-30T02:47:52.469Z,98770.62
2019-01-30T02:50:19.212Z,98768.47
2019-01-30T02:52:45.679Z,98766.73
2019-01-30T02:55:13.703Z,98768.03
2019-01-30T02:57:39.841Z,98771.06
2019-01-30T03:00:18.829Z,98770.62
2019-01-30T03:02:45.002Z,98766.73
2019-01-30T03:05:12.418Z,98773.66
2019-01-30T03:07:38.605Z,98764.15
2019-01-30T03:10:08.311Z,98767.18
2019-01-30T03:12:34.427Z,98754.65
2019-01-30T03:15:01.047Z,98758.56
2019-01-30T03:17:27.265Z,98760.70
2019-01-30T03:19:53.365Z,98757.67
2019-01-30T03:22:19.553Z,98753.38
2019-01-30T03:24:45.684Z,98749.06
2019-01-30T03:27:11.861Z,98748.61
2019-01-30T03:29:37.963Z,98749.05
2019-01-30T03:32:04.298Z,98758.56
2019-01-30T03:34:30.453Z,98755.53
2019-01-30T03:36:56.634Z,98758.56
2019-01-30T03:39:22.740Z,98753.38
2019-01-30T03:41:48.886Z,98758.13
2019-01-30T03:44:15.159Z,98754.68
2019-01-30T03:46:41.328Z,98765.03
2019-01-30T03:49:07.540Z,98762.01
2019-01-30T03:51:33.768Z,98756.83
2019-01-30T03:53:59.930Z,98761.13
2019-01-30T03:56:26.029Z,98765.03
2019-01-30T03:58:52.180Z,98762.86
2019-01-30T04:01:26.569Z,98752.06
2019-01-30T04:03:46.452Z,98752.50
2019-01-30T04:06:12.620Z,98761.58
2019-01-30T04:08:38.750Z,98765.44
2019-01-30T04:11:04.896Z,98767.59
2019-01-30T04:13:31.005Z,98763.71
2019-01-30T04:15:57.190Z,98766.74
2019-01-30T04:18:23.309Z,98762.01
2019-01-30T04:20:49.451Z,98770.19
2019-01-30T04:23:17.378Z,98765.45
2019-01-30T04:25:43.521Z,98763.72
2019-01-30T04:28:09.634Z,98767.18
2019-01-30T04:30:35.798Z,98763.73
2019-01-30T04:33:01.893Z,98767.59
2019-01-30T04:35:28.043Z,98768.03
2019-01-30T04:37:54.174Z,98771.06
2019-01-30T04:40:22.533Z,98771.48
2019-01-30T04:42:48.714Z,98772.77
2019-01-30T04:45:21.461Z,98773.21
2019-01-30T04:47:47.588Z,98775.36
2019-01-30T04:50:13.853Z,98779.69
2019-01-30T04:52:39.982Z,98780.98
2019-01-30T04:55:07.599Z,98781.42
2019-01-30T04:57:33.748Z,98777.09
2019-01-30T04:59:59.950Z,98777.95
2019-01-30T05:02:26.106Z,98774.06
2019-01-30T05:04:52.239Z,98782.27
2019-01-30T05:07:18.353Z,98777.55
2019-01-30T05:09:44.463Z,98777.11
2019-01-30T05:12:10.595Z,98780.98
2019-01-30T05:14:36.600Z,98778.84
2019-01-30T05:17:02.850Z,98774.96
2019-01-30T05:19:29.001Z,98779.70
2019-01-30T05:21:55.162Z,98779.25
2019-01-30T05:24:21.317Z,98781.84
2019-01-30T05:26:47.440Z,98774.52
2019-01-30T05:29:13.590Z,98777.55
2019-01-30T05:31:39.823Z,98781.84
2019-01-30T05:34:05.979Z,98785.72
2019-01-30T05:36:32.082Z,98784.41
2019-01-30T05:38:58.248Z,98785.31
2019-01-30T05:41:24.416Z,98790.05
2019-01-30T05:43:50.484Z,98791.34
2019-01-30T05:46:16.757Z,98790.91
2019-01-30T05:48:42.940Z,98792.64
2019-01-30T05:51:09.074Z,98796.96
2019-01-30T05:53:35.231Z,98795.22
2019-01-30T05:56:01.382Z,98798.22
2019-01-30T05:58:27.614Z,98796.08
2019-01-30T06:00:53.867Z,98792.19
2019-01-30T06:03:20.005Z,98800.40
2019-01-30T06:05:46.134Z,98793.48
2019-01-30T06:08:12.292Z,98804.73
2019-01-30T06:10:38.430Z,98792.20
2019-01-30T06:13:05.066Z,98793.08
2019-01-30T06:15:31.248Z,98793.94
2019-01-30T06:17:57.396Z,98804.28
2019-01-30T06:20:25.552Z,98803.40
2019-01-30T06:22:52.265Z,98803.43
2019-01-30T06:25:18.436Z,98804.73
2019-01-30T06:27:46.354Z,98800.84
2019-01-30T06:30:15.179Z,98802.14
2019-01-30T06:32:41.413Z,98807.31
2019-01-30T06:35:07.739Z,98807.73
2019-01-30T06:37:34.032Z,98814.64
2019-01-30T06:40:00.211Z,98818.52
2019-01-30T06:42:26.358Z,98809.45
2019-01-30T06:44:52.542Z,98815.08
2019-01-30T06:47:18.814Z,98818.52
2019-01-30T06:49:44.923Z,98824.55
2019-01-30T06:52:11.065Z,98829.73
2019-01-30T06:54:37.310Z,98831.91
2019-01-30T06:57:03.569Z,98830.16
2019-01-30T06:59:29.709Z,98832.75
2019-01-30T07:01:55.900Z,98840.08
2019-01-30T07:04:22.233Z,98836.64
2019-01-30T07:06:48.480Z,98843.55
2019-01-30T07:09:14.643Z,98845.25
2019-01-30T07:11:40.796Z,98850.87
2019-01-30T07:14:06.995Z,98849.14
2019-01-30T07:16:35.064Z,98847.84
2019-01-30T07:19:01.174Z,98852.17
2019-01-30T07:21:27.277Z,98852.61
2019-01-30T07:23:53.435Z,98851.31
2019-01-30T07:26:19.775Z,98855.61
2019-01-30T07:28:46.011Z,98858.20
2019-01-30T07:31:12.165Z,98861.67
2019-01-30T07:33:38.327Z,98860.78
2019-01-30T07:36:04.945Z,98860.78
2019-01-30T07:38:31.133Z,98862.95
2019-01-30T07:40:57.282Z,98868.55
2019-01-30T07:43:23.451Z,98864.66
2019-01-30T07:45:49.583Z,98866.40
2019-01-30T07:48:15.857Z,98869.43
2019-01-30T07:50:42.004Z,98867.70
2019-01-30T07:53:08.141Z,98870.73
2019-01-30T07:55:34.313Z,98880.63
2019-01-30T07:58:00.443Z,98874.61
2019-01-30T08:00:28.563Z,98876.34
2019-01-30T08:02:54.738Z,98882.37
2019-01-30T08:05:22.684Z,98883.22
2019-01-30T08:07:49.549Z,98885.40
2019-01-30T08:10:15.907Z,98887.55
2019-01-30T08:12:42.155Z,98892.72
2019-01-30T08:15:11.288Z,98894.91
2019-01-30T08:17:37.628Z,98899.64
2019-01-30T08:20:09.765Z,98900.93
2019-01-30T08:22:35.872Z,98900.93
2019-01-30T08:25:02.135Z,98912.58
2019-01-30T08:27:29.022Z,98907.40
2019-01-30T08:29:55.234Z,98906.11
2019-01-30T08:32:22.371Z,98908.70
2019-01-30T08:34:48.771Z,98910.84
2019-01-30T08:37:14.875Z,98909.58
2019-01-30T08:39:41.003Z,98914.30
2019-01-30T08:42:07.304Z,98912.16
2019-01-30T08:44:33.433Z,98918.19
2019-01-30T08:46:59.593Z,98919.92
2019-01-30T08:49:25.734Z,98915.61
2019-01-30T08:51:51.993Z,98912.16
2019-01-30T08:54:18.104Z,98924.66
2019-01-30T08:56:53.050Z,98927.25
2019-01-30T08:59:14.084Z,98927.69
2019-01-30T09:01:40.237Z,98926.84
2019-01-30T09:04:06.357Z,98934.16
2019-01-30T09:06:32.510Z,98931.57
2019-01-30T09:08:59.051Z,98928.13
2019-01-30T09:11:25.278Z,98937.19
2019-01-30T09:13:51.472Z,98943.66
2019-01-30T09:16:17.614Z,98949.72
2019-01-30T09:18:43.779Z,98942.39
2019-01-30T09:21:09.918Z,98943.69
2019-01-30T09:23:36.075Z,98944.97
2019-01-30T09:26:02.183Z,98939.34
2019-01-30T09:28:28.457Z,98939.78
2019-01-30T09:30:54.757Z,98946.70
2019-01-30T09:33:25.777Z,98961.39
2019-01-30T09:35:49.333Z,98959.64
2019-01-30T09:38:15.800Z,98959.23
2019-01-30T09:40:42.081Z,98960.96
2019-01-30T09:43:08.278Z,98962.67
2019-01-30T09:45:34.418Z,98963.96
2019-01-30T09:48:00.829Z,98961.38
2019-01-30T09:50:26.972Z,98964.41
2019-01-30T09:52:53.205Z,98964.41
2019-01-30T09:55:19.425Z,98976.50
2019-01-30T09:57:45.592Z,98976.06
2019-01-30T10:00:18.067Z,98975.22
2019-01-30T10:02:44.301Z,98966.99
2019-01-30T10:05:12.129Z,98967.01
2019-01-30T10:07:38.419Z,98971.73
2019-01-30T10:10:11.146Z,98966.57
2019-01-30T10:12:37.314Z,98971.73
2019-01-30T10:15:07.036Z,98968.26
2019-01-30T10:17:33.103Z,98971.27
2019-01-30T10:19:59.219Z,98975.59
2019-01-30T10:22:25.433Z,98984.23
2019-01-30T10:24:51.675Z,98990.25
2019-01-30T10:27:17.909Z,98994.14
2019-01-30T10:29:44.078Z,98996.30
2019-01-30T10:32:10.603Z,99001.06
2019-01-30T10:34:36.923Z,99007.06
2019-01-30T10:37:04.273Z,99003.63
2019-01-30T10:39:30.601Z,99004.45
2019-01-30T10:41:56.912Z,99008.74
2019-01-30T10:44:25.694Z,99000.53
2019-01-30T10:46:51.983Z,99000.91
2019-01-30T10:49:18.224Z,99000.48
2019-01-30T10:51:46.282Z,98997.42
2019-01-30T10:54:12.557Z,99003.90
2019-01-30T10:56:38.708Z,98996.52
2019-01-30T10:59:04.874Z,98994.75
2019-01-30T11:01:31.042Z,98995.61
2019-01-30T11:03:58.623Z,99000.77
2019-01-30T11:06:24.723Z,98999.52
2019-01-30T11:08:50.891Z,99002.97
2019-01-30T11:11:17.021Z,99003.01
2019-01-30T11:13:43.154Z,99001.73
2019-01-30T11:16:09.377Z,99000.83
2019-01-30T11:18:35.522Z,99006.89
2019-01-30T11:21:01.750Z,98998.25
2019-01-30T11:23:27.930Z,99001.67
2019-01-30T11:25:54.162Z,99002.06
2019-01-30T11:28:20.312Z,98999.92
2019-01-30T11:30:46.440Z,99005.11
2019-01-30T11:33:12.706Z,98998.16
2019-01-30T11:35:38.835Z,99002.91
2019-01-30T11:38:05.293Z,99002.50
2019-01-30T11:40:31.517Z,99004.23
2019-01-30T11:42:58.037Z,99003.77
2019-01-30T11:45:30.288Z,99006.78
2019-01-30T11:47:56.454Z,99008.09
2019-01-30T11:50:22.743Z,99009.38
2019-01-30T11:52:48.910Z,99005.04
2019-01-30T11:55:17.349Z,99010.67
2019-01-30T11:57:43.720Z,99013.67
2019-01-30T12:00:15.174Z,99014.95
2019-01-30T12:02:47.668Z,99015.77
2019-01-30T12:05:12.798Z,99014.52
2019-01-30T12:07:39.038Z,99018.42
2019-01-30T12:10:08.803Z,99017.96
2019-01-30T12:12:36.423Z,99017.98
2019-01-30T12:15:17.559Z,99018.86
2019-01-30T12:17:43.734Z,99017.53
2019-01-30T12:20:11.484Z,99022.31
2019-01-30T12:22:37.663Z,99014.52
2019-01-30T12:25:07.128Z,99012.78
2019-01-30T12:27:33.381Z,99017.55
2019-01-30T12:29:59.533Z,99017.55
2019-01-30T12:32:25.711Z,99010.98
2019-01-30T12:34:51.856Z,99012.72
2019-01-30T12:37:18.077Z,99016.59
2019-01-30T12:39:46.035Z,99012.25
2019-01-30T12:42:12.280Z,99016.55
2019-01-30T12:44:38.566Z,99017.83
2019-01-30T12:47:04.881Z,99019.56
2019-01-30T12:49:30.989Z,99017.80
2019-01-30T12:51:57.299Z,99018.27
2019-01-30T12:54:23.565Z,99018.69
2019-01-30T12:56:49.675Z,99023.47
2019-01-30T12:59:18.611Z,99024.75
2019-01-30T13:01:44.829Z,99021.73
2019-01-30T13:04:10.983Z,99027.33
2019-01-30T13:06:37.229Z,99021.67
2019-01-30T13:09:06.605Z,99022.17
2019-01-30T13:11:32.806Z,99025.20
2019-01-30T13:13:59.006Z,99023.92
2019-01-30T13:16:25.280Z,99031.73
2019-01-30T13:18:51.500Z,99026.58
2019-01-30T13:21:17.664Z,99017.47
2019-01-30T13:23:43.820Z,99019.63
2019-01-30T13:26:10.165Z,99022.66
2019-01-30T13:28:36.275Z,99026.55
2019-01-30T13:31:02.500Z,99036.06
2019-01-30T13:33:28.664Z,99033.91
2019-01-30T13:35:54.799Z,99035.64
2019-01-30T13:38:21.065Z,99036.50
2019-01-30T13:40:47.463Z,99037.38
2019-01-30T13:43:13.714Z,99040.84
2019-01-30T13:45:39.946Z,99037.38
2019-01-30T13:48:08.659Z,99038.67
2019-01-30T13:50:34.788Z,99043.87
2019-01-30T13:53:01.036Z,99046.01
2019-01-30T13:55:27.169Z,99044.30
2019-01-30T13:57:53.346Z,99049.95
2019-01-30T14:00:31.227Z,99057.67
2019-01-30T14:02:57.356Z,99059.38
2019-01-30T14:05:23.655Z,99057.09
2019-01-30T14:07:50.218Z,99056.16
2019-01-30T14:10:16.383Z,99058.63
2019-01-30T14:12:42.504Z,99059.02
2019-01-30T14:15:12.356Z,99060.34
2019-01-30T14:17:38.476Z,99064.72
2019-01-30T14:20:08.200Z,99063.84
2019-01-30T14:22:34.453Z,99074.31
2019-01-30T14:25:00.644Z,99060.91
2019-01-30T14:27:26.906Z,99072.16
2019-01-30T14:29:58.227Z,99077.83
2019-01-30T14:32:21.291Z,99081.65
2019-01-30T14:34:47.396Z,99076.02
2019-01-30T14:37:13.525Z,99075.15
2019-01-30T14:39:39.767Z,99077.79
2019-01-30T14:42:06.163Z,99081.75
2019-01-30T14:44:32.323Z,99087.47
2019-01-30T14:46:58.613Z,99085.76
2019-01-30T14:49:24.850Z,99089.72
2019-01-30T14:51:51.195Z,99092.32
2019-01-30T14:54:17.317Z,99094.97
2019-01-30T14:56:43.467Z,99092.42
2019-01-30T14:59:09.613Z,99097.66
2019-01-30T15:01:35.750Z,99099.88
2019-01-30T15:04:01.953Z,99113.72
2019-01-30T15:06:28.183Z,99111.13
2019-01-30T15:08:54.313Z,99114.16
2019-01-30T15:11:20.524Z,99121.51
2019-01-30T15:13:46.715Z,99114.55
2019-01-30T15:16:12.968Z,99111.08
2019-01-30T15:18:39.164Z,99112.38
2019-01-30T15:21:05.398Z,99109.33
2019-01-30T15:23:31.590Z,99111.08
2019-01-30T15:25:57.759Z,99109.34
2019-01-30T15:28:23.904Z,99114.55
2019-01-30T15:30:50.081Z,99115.86
2019-01-30T15:33:16.307Z,99117.19
2019-01-30T15:35:42.527Z,99117.17
2019-01-30T15:38:09.675Z,99122.40
2019-01-30T15:40:35.822Z,99116.36
2019-01-30T15:43:02.139Z,99120.27
2019-01-30T15:45:28.640Z,99121.99
2019-01-30T15:47:54.938Z,99118.58
2019-01-30T15:50:24.248Z,99119.86
2019-01-30T15:52:50.706Z,99117.29
2019-01-30T15:55:16.964Z,99118.61
2019-01-30T15:57:46.496Z,99121.20
2019-01-30T16:00:30.663Z,99122.50
2019-01-30T16:02:56.842Z,99122.97
2019-01-30T16:05:23.029Z,99130.73
2019-01-30T16:07:49.141Z,99132.92
2019-01-30T16:10:15.349Z,99129.91
2019-01-30T16:12:43.371Z,99138.56
2019-01-30T16:15:19.128Z,99133.80
2019-01-30T16:17:45.365Z,99136.80
2019-01-30T16:20:13.330Z,99135.07
2019-01-30T16:22:39.544Z,99131.64
2019-01-30T16:25:09.456Z,99134.20
2019-01-30T16:27:35.886Z,99133.36
2019-01-30T16:30:03.902Z,99131.60
2019-01-30T16:32:30.112Z,99133.34
2019-01-30T16:34:56.376Z,99135.94
2019-01-30T16:37:22.710Z,99137.22
2019-01-30T16:39:48.893Z,99141.55
2019-01-30T16:42:15.051Z,99141.96
2019-01-30T16:44:41.177Z,99148.00
2019-01-30T16:47:07.493Z,99146.70
2019-01-30T16:49:33.598Z,99151.45
2019-01-30T16:51:59.735Z,99144.11
2019-01-30T16:54:26.994Z,99147.11
2019-01-30T16:56:53.112Z,99147.52
2019-01-30T16:59:19.260Z,99152.70
2019-01-30T17:01:45.500Z,99157.44
2019-01-30T17:04:11.682Z,99163.92
2019-01-30T17:06:37.927Z,99154.41
2019-01-30T17:09:05.847Z,99160.47
2019-01-30T17:11:32.104Z,99159.59
2019-01-30T17:13:58.293Z,99164.36
2019-01-30T17:16:24.405Z,99164.77
2019-01-30T17:18:50.535Z,99175.56
2019-01-30T17:21:16.673Z,99173.38
2019-01-30T17:23:42.801Z,99174.66
2019-01-30T17:26:09.067Z,99173.77
2019-01-30T17:28:35.730Z,99175.91
2019-01-30T17:31:03.089Z,99174.16
2019-01-30T17:33:29.238Z,99178.47
2019-01-30T17:35:55.399Z,99183.21
2019-01-30T17:38:21.524Z,99178.87
2019-01-30T17:40:47.646Z,99188.78
2019-01-30T17:43:13.858Z,99193.50
2019-01-30T17:45:40.124Z,99186.16
2019-01-30T17:48:07.600Z,99187.00
2019-01-30T17:50:33.867Z,99179.22
2019-01-30T17:53:00.136Z,99180.06
2019-01-30T17:55:26.678Z,99187.31
2019-01-30T17:57:52.967Z,99186.42
2019-01-30T18:00:46.780Z,99186.36
2019-01-30T18:03:12.870Z,99182.93
2019-01-30T18:05:39.086Z,99191.52
2019-01-30T18:08:05.277Z,99192.72
2019-01-30T18:10:31.387Z,99189.17
2019-01-30T18:12:57.590Z,99193.43
2019-01-30T18:15:23.777Z,99193.38
2019-01-30T18:17:49.927Z,99194.20
2019-01-30T18:20:20.201Z,99195.89
2019-01-30T18:22:46.401Z,99196.33
2019-01-30T18:25:19.416Z,99193.75
2019-01-30T18:27:45.581Z,99188.95
2019-01-30T18:30:15.452Z,99191.97
2019-01-30T18:32:41.945Z,99190.23
2019-01-30T18:35:08.740Z,99190.59
2019-01-30T18:37:34.997Z,99188.88
2019-01-30T18:40:01.154Z,99188.41
2019-01-30T18:42:27.364Z,99193.50
2019-01-30T18:44:53.504Z,99191.72
2019-01-30T18:47:20.148Z,99193.07
2019-01-30T18:49:46.364Z,99196.02
2019-01-30T18:52:13.903Z,99202.84
2019-01-30T18:54:40.180Z,99199.36
2019-01-30T18:57:06.419Z,99197.16
2019-01-30T18:59:32.538Z,99199.73
2019-01-30T19:01:58.671Z,99193.25
2019-01-30T19:04:24.898Z,99197.96
2019-01-30T19:06:52.650Z,99193.17
2019-01-30T19:09:19.080Z,99196.17
2019-01-30T19:11:45.249Z,99195.33
2019-01-30T19:14:11.354Z,99196.16
2019-01-30T19:16:37.511Z,99184.05
2019-01-30T19:19:03.631Z,99188.30
2019-01-30T19:21:29.866Z,99189.56
2019-01-30T19:23:55.978Z,99192.13
2019-01-30T19:26:25.102Z,99187.41
2019-01-30T19:28:51.222Z,99186.48
2019-01-30T19:31:17.548Z,99192.50
2019-01-30T19:33:45.538Z,99189.98
2019-01-30T19:36:11.764Z,99190.95
2019-01-30T19:38:38.896Z,99197.09
2019-01-30T19:41:05.031Z,99195.86
2019-01-30T19:43:31.201Z,99192.42
2019-01-30T19:45:57.427Z,99195.41
2019-01-30T19:48:23.591Z,99198.89
2019-01-30T19:50:49.746Z,99197.14
2019-01-30T19:53:15.904Z,99193.30
2019-01-30T19:55:42.153Z,99195.04
2019-01-30T19:58:08.508Z,99197.20
2019-01-30T20:00:37.158Z,99201.09
2019-01-30T20:03:07.097Z,99194.26
2019-01-30T20:05:33.275Z,99194.72
2019-01-30T20:07:59.557Z,99197.77
2019-01-30T20:10:31.742Z,99194.30
2019-01-30T20:12:58.038Z,99196.48
2019-01-30T20:15:24.152Z,99198.66
2019-01-30T20:17:53.126Z,99202.98
2019-01-30T20:20:21.065Z,99197.81
2019-01-30T20:22:47.436Z,99196.98
2019-01-30T20:25:18.980Z,99195.25
2019-01-30T20:27:45.182Z,99191.83
2019-01-30T20:30:14.962Z,99193.59
2019-01-30T20:32:41.146Z,99186.28
2019-01-30T20:35:07.699Z,99187.98
2019-01-30T20:37:33.919Z,99187.56
2019-01-30T20:40:00.097Z,99181.97
2019-01-30T20:42:26.288Z,99191.05
2019-01-30T20:44:52.452Z,99185.41
2019-01-30T20:47:18.586Z,99189.27
2019-01-30T20:49:45.048Z,99188.39
2019-01-30T20:52:11.162Z,99190.03
2019-01-30T20:54:37.314Z,99187.41
2019-01-30T20:57:03.506Z,99187.81
2019-01-30T20:59:29.734Z,99195.55
2019-01-30T21:01:55.911Z,99201.14
2019-01-30T21:04:22.059Z,99201.14
2019-01-30T21:06:48.705Z,99199.86
2019-01-30T21:09:14.846Z,99197.70
2019-01-30T21:11:41.237Z,99195.58
2019-01-30T21:14:07.411Z,99199.46
2019-01-30T21:16:33.731Z,99207.20
2019-01-30T21:19:02.592Z,99196.02
2019-01-30T21:21:28.711Z,99198.19
2019-01-30T21:23:54.868Z,99196.47
2019-01-30T21:26:20.994Z,99205.92
2019-01-30T21:28:49.146Z,99207.20
2019-01-30T21:31:15.302Z,99210.23
2019-01-30T21:33:41.449Z,99210.67
2019-01-30T21:36:07.698Z,99207.23
2019-01-30T21:38:33.870Z,99208.95
2019-01-30T21:41:00.038Z,99206.73
2019-01-30T21:43:26.250Z,99208.85
2019-01-30T21:45:52.391Z,99216.11
2019-01-30T21:48:18.526Z,99215.22
2019-01-30T21:50:44.658Z,99213.89
2019-01-30T21:53:10.991Z,99212.97
2019-01-30T21:55:39.092Z,99201.33
2019-01-30T21:58:05.340Z,99204.35
2019-01-30T22:00:31.558Z,99203.48
2019-01-30T22:02:57.840Z,99210.39
2019-01-30T22:05:24.634Z,99206.06
2019-01-30T22:08:00.741Z,99202.61
2019-01-30T22:10:24.489Z,99202.98
2019-01-30T22:12:50.596Z,99205.08
2019-01-30T22:15:16.823Z,99202.45
2019-01-30T22:17:46.029Z,99206.26
2019-01-30T22:20:20.064Z,99201.91
2019-01-30T22:22:46.272Z,99203.10
2019-01-30T22:25:20.245Z,99206.48
2019-01-30T22:27:45.834Z,99205.98
2019-01-30T22:30:21.122Z,99202.09
2019-01-30T22:32:47.475Z,99208.94
2019-01-30T22:35:13.663Z,99208.02
2019-01-30T22:37:39.856Z,99205.80
2019-01-30T22:40:09.290Z,99200.23
2019-01-30T22:42:35.440Z,99201.05
2019-01-30T22:45:01.555Z,99207.48
2019-01-30T22:47:27.794Z,99203.52
2019-01-30T22:49:53.893Z,99205.25
2019-01-30T22:52:20.045Z,99198.77
2019-01-30T22:54:46.192Z,99195.71
2019-01-30T22:57:12.338Z,99191.45
2019-01-30T22:59:38.589Z,99201.31
2019-01-30T23:02:04.987Z,99197.41
2019-01-30T23:04:40.590Z,99196.95
2019-01-30T23:07:19.470Z,99191.81
2019-01-30T23:09:58.320Z,99195.71
2019-01-30T23:12:30.884Z,99198.75
2019-01-30T23:15:18.052Z,99187.99
2019-01-30T23:18:14.002Z,99192.68
2019-01-30T23:20:50.005Z,99192.19
2019-01-30T23:23:22.673Z,99193.90
2019-01-30T23:25:52.530Z,99187.39
2019-01-30T23:28:34.233Z,99192.54
2019-01-30T23:31:10.997Z,99197.68
2019-01-30T23:34:04.605Z,99193.76
2019-01-30T23:36:52.532Z,99188.56
2019-01-30T23:39:57.064Z,99190.28
2019-01-30T23:42:53.818Z,99188.56
2019-01-30T23:45:38.080Z,99183.82
2019-01-30T23:48:20.084Z,99180.73
2019-01-30T23:51:08.277Z,99185.00
2019-01-30T23:53:56.319Z,99186.70
2019-01-30T23:56:49.017Z,99184.07
2019-01-30T23:59:33.569Z,99178.45
